Orono, Maine
Current Conditions -  °F | °C
As of 5:53 PM on Wednesday 17 Dec 2014 (Local Time) from KBGR Reporting Station
Light Snow Light Snow  
Wind Chill: 28°   Ceiling: 800
Heat Index: 36°   Visibility: 3mi
Dew Point: 34°   Wind: 10mph
Humidity: 93%   Direction: 20°NNE
Pressure: 29.69"   Gusts: NA
Location:  44.88°N, 68.67°W
Report Text: KBGR 172253Z 02009KT 3SM -RASN BR OVC008 02/01 A2969 RMK AO2 SNB50 CIG 004V012 SLP056 P0001 T00220011
Loading
Personal Weather Stations






























Interactive Weather Map New forecast layout! Learn more

10-Day Weather Forecast

Advertisements
Track Severe Weather on mobile